Agoura, California
Current Conditions -  °F | °C
As of 3:51 PM on Tuesday 25 Nov 2014 (Local Time) from KVNY Reporting Station
Clear Clear  
Wind Chill: 78°   Ceiling: Unl
Heat Index: 78°   Visibility: 10mi
Dew Point: 14°   Wind: 6mph
Humidity: 9%   Direction: NA
Pressure: 30.25"   Gusts: NA
Location:  34.1232°N, 118.77°W
Report Text: KVNY 252351Z VRB05KT 10SM CLR 26/M10 A3025 RMK AO2 SLP239 T02561100 10278 20194 55013
Loading
Personal Weather Stations






























Interactive Weather Map New forecast layout! Learn more

10-Day Weather Forecast

Advertisements
Track Severe Weather on mobile